Time,TemperatureF,DewpointF,PressureIn,WindDirection,WindDirectionDegrees,WindSpeedMPH,WindSpeedGustMPH,Humidity,HourlyPrecipIn,Conditions,Clouds,dailyrainin,SoftwareType,DateUTC
2013-08-29 00:03:00,79.3,67.0,29.94,ENE,57,0.0,0.0,65,0.00,,,0.00,weatherlink.com 1.10,2013-08-29 06:03:00,
2013-08-29 00:19:00,79.0,66.0,29.94,ENE,57,0.0,0.0,65,0.00,,,0.00,weatherlink.com 1.10,2013-08-29 06:19:00,
2013-08-29 00:34:00,78.8,66.0,29.94,ENE,57,0.0,0.0,66,0.00,,,0.00,weatherlink.com 1.10,2013-08-29 06:34:00,
2013-08-29 00:49:00,78.2,67.0,29.94,ENE,57,0.0,0.0,68,0.00,,,0.00,weatherlink.com 1.10,2013-08-29 06:49:00,
2013-08-29 01:04:00,78.2,66.0,29.94,ENE,57,0.0,0.0,67,0.00,,,0.00,weatherlink.com 1.10,2013-08-29 07:04:00,
2013-08-29 01:19:00,77.3,66.0,29.94,ENE,57,0.0,0.0,69,0.00,,,0.00,weatherlink.com 1.10,2013-08-29 07:19:00,
2013-08-29 01:34:00,77.1,67.0,29.94,ENE,57,0.0,0.0,72,0.00,,,0.00,weatherlink.com 1.10,2013-08-29 07:34:00,
2013-08-29 01:49:00,77.1,67.0,29.94,ENE,57,0.0,0.0,72,0.00,,,0.00,weatherlink.com 1.10,2013-08-29 07:49:00,
2013-08-29 02:04:00,77.7,70.0,29.94,ENE,57,0.0,0.0,78,0.00,,,0.00,weatherlink.com 1.10,2013-08-29 08:04:00,
2013-08-29 02:20:00,77.1,70.0,29.94,ENE,57,0.0,0.0,79,0.00,,,0.00,weatherlink.com 1.10,2013-08-29 08:20:00,
2013-08-29 02:34:00,76.6,68.0,29.94,ENE,57,0.0,0.0,75,0.00,,,0.00,weatherlink.com 1.10,2013-08-29 08:34:00,
2013-08-29 02:49:00,77.2,68.0,29.94,ENE,57,0.0,0.0,74,0.00,,,0.00,weatherlink.com 1.10,2013-08-29 08:49:00,
2013-08-29 03:04:00,77.6,71.0,29.94,ENE,57,0.0,0.0,80,0.00,,,0.00,weatherlink.com 1.10,2013-08-29 09:04:00,
2013-08-29 03:19:00,77.4,71.0,29.94,ENE,57,0.0,0.0,80,0.00,,,0.00,weatherlink.com 1.10,2013-08-29 09:19:00,
2013-08-29 03:34:00,77.1,71.0,29.94,NNE,31,3.0,3.0,81,0.00,,,0.00,weatherlink.com 1.10,2013-08-29 09:34:00,
2013-08-29 03:49:00,76.9,68.0,29.95,ENE,63,0.0,5.0,73,0.00,,,0.00,weatherlink.com 1.10,2013-08-29 09:49:00,
2013-08-29 04:04:00,77.4,67.0,29.96,ESE,116,0.0,2.0,71,0.00,,,0.00,weatherlink.com 1.10,2013-08-29 10:04:00,
2013-08-29 04:19:00,77.1,67.0,29.96,ESE,105,0.0,1.0,72,0.00,,,0.00,weatherlink.com 1.10,2013-08-29 10:19:00,
2013-08-29 04:34:00,77.0,67.0,29.96,East,98,0.0,1.0,72,0.00,,,0.00,weatherlink.com 1.10,2013-08-29 10:34:00,
2013-08-29 04:49:00,76.4,67.0,29.97,East,98,0.0,1.0,73,0.00,,,0.00,weatherlink.com 1.10,2013-08-29 10:49:00,
2013-08-29 05:04:00,75.9,67.0,29.97,East,98,0.0,0.0,74,0.00,,,0.00,weatherlink.com 1.10,2013-08-29 11:04:00,
2013-08-29 05:19:00,75.5,67.0,29.97,East,98,0.0,1.0,74,0.00,,,0.00,weatherlink.com 1.10,2013-08-29 11:19:00,
2013-08-29 05:34:00,75.0,67.0,29.98,East,98,0.0,0.0,75,0.00,,,0.00,weatherlink.com 1.10,2013-08-29 11:34:00,
2013-08-29 05:49:00,75.1,67.0,29.98,East,98,0.0,0.0,75,0.00,,,0.00,weatherlink.com 1.10,2013-08-29 11:49:00,
2013-08-29 06:04:00,74.7,67.0,29.98,East,98,0.0,0.0,76,0.00,,,0.00,weatherlink.com 1.10,2013-08-29 12:04:00,
2013-08-29 06:19:00,75.0,67.0,29.98,East,98,0.0,0.0,76,0.00,,,0.00,weatherlink.com 1.10,2013-08-29 12:19:00,
2013-08-29 06:34:00,76.4,68.0,29.98,East,98,0.0,0.0,75,0.00,,,0.00,weatherlink.com 1.10,2013-08-29 12:34:00,
2013-08-29 06:49:00,78.1,68.0,29.99,SSE,148,0.0,1.0,72,0.00,,,0.00,weatherlink.com 1.10,2013-08-29 12:49:00,
2013-08-29 07:04:00,81.1,69.0,29.99,SE,135,0.0,0.0,67,0.00,,,0.00,weatherlink.com 1.10,2013-08-29 13:04:00,
2013-08-29 07:19:00,84.3,70.0,29.99,SSE,157,0.0,0.0,63,0.00,,,0.00,weatherlink.com 1.10,2013-08-29 13:19:00,
2013-08-29 07:34:00,87.2,70.0,30.00,SW,214,1.0,2.0,56,0.00,,,0.00,weatherlink.com 1.10,2013-08-29 13:34:00,
2013-08-29 07:51:00,89.1,70.0,30.00,SE,129,1.0,1.0,54,0.00,,,0.00,weatherlink.com 1.10,2013-08-29 13:51:00,
2013-08-29 08:05:00,90.8,71.0,30.00,SSE,154,0.0,3.0,52,0.00,,,0.00,weatherlink.com 1.10,2013-08-29 14:05:00,
2013-08-29 08:20:00,90.8,70.0,30.00,SE,124,0.0,3.0,50,0.00,,,0.00,weatherlink.com 1.10,2013-08-29 14:20:00,
2013-08-29 08:35:00,90.1,69.0,30.00,SW,235,3.0,5.0,50,0.00,,,0.00,weatherlink.com 1.10,2013-08-29 14:35:00,
2013-08-29 08:50:00,90.2,69.0,30.00,WSW,239,1.0,5.0,50,0.00,,,0.00,weatherlink.com 1.10,2013-08-29 14:50:00,
2013-08-29 09:05:00,91.3,70.0,30.00,West,264,1.0,5.0,49,0.00,,,0.00,weatherlink.com 1.10,2013-08-29 15:05:00,
2013-08-29 09:20:00,91.8,71.0,30.00,SW,228,1.0,6.0,50,0.00,,,0.00,weatherlink.com 1.10,2013-08-29 15:20:00,
2013-08-29 09:35:00,93.4,71.0,30.00,WSW,245,2.0,6.0,48,0.00,,,0.00,weatherlink.com 1.10,2013-08-29 15:35:00,
2013-08-29 09:50:00,93.6,69.0,30.00,West,260,3.0,5.0,45,0.00,,,0.00,weatherlink.com 1.10,2013-08-29 15:50:00,
2013-08-29 10:05:00,94.4,69.0,30.00,NW,309,4.0,4.0,44,0.00,,,0.00,weatherlink.com 1.10,2013-08-29 16:05:00,
2013-08-29 10:20:00,96.3,69.0,30.00,North,5,0.0,5.0,41,0.00,,,0.00,weatherlink.com 1.10,2013-08-29 16:20:00,
2013-08-29 10:35:00,96.2,69.0,29.99,NW,319,4.0,4.0,41,0.00,,,0.00,weatherlink.com 1.10,2013-08-29 16:35:00,
2013-08-29 10:50:00,98.0,68.0,29.98,NW,305,2.0,7.0,38,0.00,,,0.00,weatherlink.com 1.10,2013-08-29 16:50:00,
2013-08-29 11:05:00,97.2,68.0,29.98,West,264,4.0,8.0,39,0.00,,,0.00,weatherlink.com 1.10,2013-08-29 17:05:00,
2013-08-29 11:20:00,97.8,66.0,29.97,West,269,1.0,10.0,35,0.00,,,0.00,weatherlink.com 1.10,2013-08-29 17:20:00,
2013-08-29 11:35:00,97.5,67.0,29.97,SW,231,2.0,6.0,37,0.00,,,0.00,weatherlink.com 1.10,2013-08-29 17:35:00,
2013-08-29 11:50:00,98.4,66.0,29.96,NNE,12,0.0,5.0,35,0.00,,,0.00,weatherlink.com 1.10,2013-08-29 17:50:00,
2013-08-29 12:05:00,98.3,66.0,29.95,WNW,290,0.0,5.0,35,0.00,,,0.00,weatherlink.com 1.10,2013-08-29 18:05:00,
2013-08-29 12:20:00,96.7,66.0,29.95,WSW,257,0.0,2.0,37,0.00,,,0.00,weatherlink.com 1.10,2013-08-29 18:20:00,
2013-08-29 12:35:00,97.0,66.0,29.94,West,274,1.0,4.0,36,0.00,,,0.00,weatherlink.com 1.10,2013-08-29 18:35:00,
2013-08-29 12:50:00,98.7,67.0,29.94,West,259,3.0,4.0,35,0.00,,,0.00,weatherlink.com 1.10,2013-08-29 18:50:00,
2013-08-29 13:05:00,99.8,67.0,29.93,WSW,242,3.0,4.0,34,0.00,,,0.00,weatherlink.com 1.10,2013-08-29 19:05:00,
2013-08-29 13:20:00,100.7,67.0,29.93,WNW,295,3.0,9.0,33,0.00,,,0.00,weatherlink.com 1.10,2013-08-29 19:20:00,
2013-08-29 13:35:00,98.2,67.0,29.92,West,280,0.0,6.0,36,0.00,,,0.00,weatherlink.com 1.10,2013-08-29 19:35:00,
2013-08-29 13:50:00,98.4,66.0,29.92,East,95,0.0,5.0,34,0.00,,,0.00,weatherlink.com 1.10,2013-08-29 19:50:00,
2013-08-29 14:05:00,100.8,67.0,29.91,WSW,255,3.0,4.0,33,0.00,,,0.00,weatherlink.com 1.10,2013-08-29 20:05:00,
2013-08-29 14:20:00,101.5,65.0,29.91,West,266,5.0,7.0,30,0.00,,,0.00,weatherlink.com 1.10,2013-08-29 20:20:00,
2013-08-29 14:35:00,101.3,66.0,29.90,SW,217,3.0,4.0,31,0.00,,,0.00,weatherlink.com 1.10,2013-08-29 20:35:00,
2013-08-29 14:51:00,101.7,67.0,29.89,WNW,297,3.0,6.0,32,0.00,,,0.00,weatherlink.com 1.10,2013-08-29 20:51:00,
2013-08-29 15:06:00,102.1,65.0,29.89,NW,305,3.0,7.0,30,0.00,,,0.00,weatherlink.com 1.10,2013-08-29 21:06:00,
2013-08-29 15:21:00,102.2,65.0,29.89,West,277,2.0,4.0,30,0.00,,,0.00,weatherlink.com 1.10,2013-08-29 21:21:00,
2013-08-29 15:36:00,101.6,66.0,29.88,SW,231,2.0,4.0,31,0.00,,,0.00,weatherlink.com 1.10,2013-08-29 21:36:00,
2013-08-29 15:51:00,101.6,64.0,29.88,West,280,1.0,5.0,29,0.00,,,0.00,weatherlink.com 1.10,2013-08-29 21:51:00,
2013-08-29 16:06:00,102.5,64.0,29.87,NNW,343,0.0,7.0,28,0.00,,,0.00,weatherlink.com 1.10,2013-08-29 22:06:00,
2013-08-29 16:21:00,102.6,64.0,29.87,SW,233,1.0,7.0,28,0.00,,,0.00,weatherlink.com 1.10,2013-08-29 22:21:00,
2013-08-29 16:36:00,101.9,62.0,29.87,NNE,16,1.0,6.0,27,0.00,,,0.00,weatherlink.com 1.10,2013-08-29 22:36:00,
2013-08-29 16:51:00,101.1,62.0,29.87,NW,318,1.0,5.0,28,0.00,,,0.00,weatherlink.com 1.10,2013-08-29 22:51:00,
2013-08-29 17:06:00,100.0,63.0,29.87,West,277,1.0,2.0,30,0.00,,,0.00,weatherlink.com 1.10,2013-08-29 23:06:00,
2013-08-29 17:21:00,99.9,63.0,29.87,NNW,329,0.0,2.0,30,0.00,,,0.00,weatherlink.com 1.10,2013-08-29 23:21:00,
2013-08-29 17:36:00,100.5,63.0,29.87,North,9,0.0,5.0,29,0.00,,,0.00,weatherlink.com 1.10,2013-08-29 23:36:00,
2013-08-29 17:51:00,99.9,62.0,29.87,WNW,302,1.0,3.0,29,0.00,,,0.00,weatherlink.com 1.10,2013-08-29 23:51:00,
2013-08-29 18:06:00,99.0,63.0,29.87,East,95,1.0,5.0,30,0.00,,,0.00,weatherlink.com 1.10,2013-08-30 00:06:00,
2013-08-29 18:21:00,97.7,63.0,29.87,NE,55,0.0,2.0,32,0.00,,,0.00,weatherlink.com 1.10,2013-08-30 00:21:00,
2013-08-29 18:36:00,96.2,64.0,29.87,ENE,65,0.0,1.0,34,0.00,,,0.00,weatherlink.com 1.10,2013-08-30 00:36:00,
2013-08-29 18:51:00,94.5,64.0,29.87,East,98,0.0,1.0,36,0.00,,,0.00,weatherlink.com 1.10,2013-08-30 00:51:00,
2013-08-29 19:06:00,93.4,63.0,29.87,East,97,0.0,1.0,37,0.00,,,0.00,weatherlink.com 1.10,2013-08-30 01:06:00,
2013-08-29 19:21:00,92.5,63.0,29.88,East,96,1.0,1.0,38,0.00,,,0.00,weatherlink.com 1.10,2013-08-30 01:21:00,
2013-08-29 19:36:00,91.8,63.0,29.88,East,98,0.0,1.0,39,0.00,,,0.00,weatherlink.com 1.10,2013-08-30 01:36:00,
2013-08-29 19:51:00,91.1,63.0,29.88,East,97,0.0,1.0,39,0.00,,,0.00,weatherlink.com 1.10,2013-08-30 01:51:00,
2013-08-29 20:06:00,90.0,63.0,29.88,East,98,0.0,1.0,41,0.00,,,0.00,weatherlink.com 1.10,2013-08-30 02:06:00,
2013-08-29 20:21:00,89.1,63.0,29.89,East,96,0.0,0.0,42,0.00,,,0.00,weatherlink.com 1.10,2013-08-30 02:21:00,
2013-08-29 20:36:00,88.1,63.0,29.89,East,96,0.0,0.0,43,0.00,,,0.00,weatherlink.com 1.10,2013-08-30 02:36:00,
2013-08-29 20:51:00,87.2,63.0,29.89,East,96,0.0,1.0,45,0.00,,,0.00,weatherlink.com 1.10,2013-08-30 02:51:00,
2013-08-29 21:06:00,86.7,63.0,29.89,East,96,0.0,0.0,45,0.00,,,0.00,weatherlink.com 1.10,2013-08-30 03:06:00,
2013-08-29 21:21:00,86.6,63.0,29.89,East,96,0.0,0.0,45,0.00,,,0.00,weatherlink.com 1.10,2013-08-30 03:21:00,
2013-08-29 21:36:00,85.4,63.0,29.89,East,96,0.0,0.0,47,0.00,,,0.00,weatherlink.com 1.10,2013-08-30 03:36:00,
2013-08-29 21:51:00,84.2,62.0,29.89,East,96,0.0,0.0,48,0.00,,,0.00,weatherlink.com 1.10,2013-08-30 03:51:00,
2013-08-29 22:06:00,83.3,65.0,29.89,East,96,0.0,0.0,54,0.00,,,0.00,weatherlink.com 1.10,2013-08-30 04:06:00,
2013-08-29 22:21:00,82.9,64.0,29.89,East,97,0.0,1.0,53,0.00,,,0.00,weatherlink.com 1.10,2013-08-30 04:21:00,
2013-08-29 22:36:00,80.9,64.0,29.89,ESE,104,0.0,0.0,57,0.00,,,0.00,weatherlink.com 1.10,2013-08-30 04:36:00,
2013-08-29 22:51:00,80.1,63.0,29.89,ESE,105,0.0,0.0,57,0.00,,,0.00,weatherlink.com 1.10,2013-08-30 04:51:00,
2013-08-29 23:06:00,80.1,63.0,29.89,ESE,104,0.0,0.0,57,0.00,,,0.00,weatherlink.com 1.10,2013-08-30 05:06:00,
2013-08-29 23:21:00,81.3,64.0,29.89,East,84,3.0,3.0,56,0.00,,,0.00,weatherlink.com 1.10,2013-08-30 05:21:00,
2013-08-29 23:36:00,82.3,64.0,29.89,ESE,115,2.0,3.0,55,0.00,,,0.00,weatherlink.com 1.10,2013-08-30 05:36:00,
2013-08-29 23:51:00,83.3,65.0,29.89,East,101,4.0,5.0,54,0.00,,,0.00,weatherlink.com 1.10,2013-08-30 05:51:00,